createdAt,value
2022-10-04T00:00:32.684Z,1011.18
2022-10-04T00:01:32.708Z,1011.16
2022-10-04T00:02:32.717Z,1011.13
2022-10-04T00:03:32.658Z,1011.09
2022-10-04T00:04:32.647Z,1011.06
2022-10-04T00:05:32.640Z,1011.00
2022-10-04T00:06:32.616Z,1010.95
2022-10-04T00:07:32.608Z,1010.90
2022-10-04T00:08:32.613Z,1010.88
2022-10-04T00:09:32.583Z,1010.86
2022-10-04T00:10:32.604Z,1010.85
2022-10-04T00:11:32.571Z,1010.86
2022-10-04T00:12:32.560Z,1010.88
2022-10-04T00:13:32.541Z,1010.92
2022-10-04T00:14:32.558Z,1010.95
2022-10-04T00:15:32.552Z,1010.97
2022-10-04T00:16:32.621Z,1010.99
2022-10-04T00:17:32.495Z,1010.99
2022-10-04T00:18:32.515Z,1010.99
2022-10-04T00:19:32.483Z,1010.98
2022-10-04T00:20:32.501Z,1010.97
2022-10-04T00:21:32.452Z,1010.98
2022-10-04T00:22:32.451Z,1010.97
2022-10-04T00:23:32.433Z,1010.97
2022-10-04T00:24:32.428Z,1010.96
2022-10-04T00:25:32.424Z,1010.95
2022-10-04T00:26:32.430Z,1010.92
2022-10-04T00:27:32.398Z,1010.87
2022-10-04T00:28:32.474Z,1010.82
2022-10-04T00:29:32.372Z,1010.78
2022-10-04T00:30:32.367Z,1010.75
2022-10-04T00:31:32.511Z,1010.72
2022-10-04T00:32:32.343Z,1010.72
2022-10-04T00:33:32.325Z,1010.73
2022-10-04T00:34:32.348Z,1010.74
2022-10-04T00:35:32.299Z,1010.75
2022-10-04T00:36:32.317Z,1010.76
2022-10-04T00:37:32.283Z,1010.75
2022-10-04T00:38:32.294Z,1010.73
2022-10-04T00:39:32.261Z,1010.71
2022-10-04T00:40:32.289Z,1010.70
2022-10-04T00:41:32.237Z,1010.69
2022-10-04T00:42:32.236Z,1010.69
2022-10-04T00:43:32.217Z,1010.69
2022-10-04T00:44:32.204Z,1010.70
2022-10-04T00:45:32.196Z,1010.70
2022-10-04T00:46:32.277Z,1010.70
2022-10-04T00:47:32.177Z,1010.68
2022-10-04T00:48:32.169Z,1010.65
2022-10-04T00:49:32.157Z,1010.65
2022-10-04T00:50:32.150Z,1010.66
2022-10-04T00:51:32.162Z,1010.66
2022-10-04T00:52:32.157Z,1010.65
2022-10-04T00:53:32.125Z,1010.61
2022-10-04T00:54:32.110Z,1010.59
2022-10-04T00:55:32.092Z,1010.60
2022-10-04T00:56:32.090Z,1010.62
2022-10-04T00:57:32.086Z,1010.62
2022-10-04T00:58:32.064Z,1010.60
2022-10-04T00:59:32.047Z,1010.58
2022-10-04T01:00:32.036Z,1010.58
2022-10-04T01:01:32.038Z,1010.59
2022-10-04T01:02:32.127Z,1010.58
2022-10-04T01:03:32.023Z,1010.57
2022-10-04T01:04:32.006Z,1010.55
2022-10-04T01:05:31.991Z,1010.54
2022-10-04T01:06:32.005Z,1010.51
2022-10-04T01:07:31.971Z,1010.50
2022-10-04T01:08:31.957Z,1010.49
2022-10-04T01:09:31.946Z,1010.49
2022-10-04T01:10:31.957Z,1010.49
2022-10-04T01:11:31.961Z,1010.49
2022-10-04T01:12:31.937Z,1010.49
2022-10-04T01:13:31.912Z,1010.49
2022-10-04T01:14:31.889Z,1010.49
2022-10-04T01:15:31.913Z,1010.49
2022-10-04T01:16:31.870Z,1010.47
2022-10-04T01:17:31.846Z,1010.47
2022-10-04T01:18:31.852Z,1010.46
2022-10-04T01:19:31.842Z,1010.46
2022-10-04T01:20:31.836Z,1010.45
2022-10-04T01:21:31.807Z,1010.43
2022-10-04T01:22:31.805Z,1010.41
2022-10-04T01:23:31.795Z,1010.40
2022-10-04T01:24:31.830Z,1010.38
2022-10-04T01:25:31.777Z,1010.36
2022-10-04T01:26:31.785Z,1010.34
2022-10-04T01:27:31.755Z,1010.32
2022-10-04T01:28:31.837Z,1010.31
2022-10-04T01:29:31.738Z,1010.31
2022-10-04T01:30:31.722Z,1010.30
2022-10-04T01:31:31.791Z,1010.28
2022-10-04T01:32:31.699Z,1010.27
2022-10-04T01:33:31.674Z,1010.26
2022-10-04T01:34:31.684Z,1010.24
2022-10-04T01:35:31.654Z,1010.23
2022-10-04T01:36:31.661Z,1010.21
2022-10-04T01:37:31.657Z,1010.20
2022-10-04T01:38:31.630Z,1010.19
2022-10-04T01:39:31.613Z,1010.17
2022-10-04T01:40:31.608Z,1010.17
2022-10-04T01:41:31.592Z,1010.17
2022-10-04T01:42:31.599Z,1010.18
2022-10-04T01:43:31.600Z,1010.18
2022-10-04T01:44:31.556Z,1010.17
2022-10-04T01:45:31.559Z,1010.16
2022-10-04T01:46:31.776Z,1010.15
2022-10-04T01:47:31.526Z,1010.15
2022-10-04T01:48:31.552Z,1010.14
2022-10-04T01:49:31.508Z,1010.14
2022-10-04T01:50:31.536Z,1010.13
2022-10-04T01:51:31.488Z,1010.13
2022-10-04T01:52:31.495Z,1010.14
2022-10-04T01:53:31.466Z,1010.14
2022-10-04T01:54:31.464Z,1010.13
2022-10-04T01:55:31.435Z,1010.12
2022-10-04T01:56:31.441Z,1010.10
2022-10-04T01:57:31.413Z,1010.10
2022-10-04T01:58:31.435Z,1010.08
2022-10-04T01:59:31.420Z,1010.06
2022-10-04T02:00:31.389Z,1010.04
2022-10-04T02:01:31.429Z,1010.02
2022-10-04T02:02:31.395Z,1010.02
2022-10-04T02:03:31.352Z,1010.02
2022-10-04T02:04:31.486Z,1010.03
2022-10-04T02:05:31.337Z,1010.03
2022-10-04T02:06:31.327Z,1010.03
2022-10-04T02:07:31.317Z,1010.02
2022-10-04T02:08:31.304Z,1010.00
2022-10-04T02:09:31.284Z,1009.98
2022-10-04T02:10:31.322Z,1009.97
2022-10-04T02:11:31.283Z,1009.95
2022-10-04T02:12:31.272Z,1009.94
2022-10-04T02:13:31.253Z,1009.92
2022-10-04T02:14:31.273Z,1009.90
2022-10-04T02:15:31.258Z,1009.89
2022-10-04T02:16:31.269Z,1009.88
2022-10-04T02:17:31.188Z,1009.88
2022-10-04T02:18:31.212Z,1009.86
2022-10-04T02:19:31.185Z,1009.84
2022-10-04T02:20:31.207Z,1009.82
2022-10-04T02:21:31.154Z,1009.80
2022-10-04T02:22:31.166Z,1009.78
2022-10-04T02:23:31.146Z,1009.78
2022-10-04T02:24:31.129Z,1009.77
2022-10-04T02:25:31.115Z,1009.76
2022-10-04T02:26:31.154Z,1009.74
2022-10-04T02:27:31.110Z,1009.73
2022-10-04T02:28:31.135Z,1009.72
2022-10-04T02:29:31.098Z,1009.71
2022-10-04T02:30:31.069Z,1009.72
2022-10-04T02:31:31.126Z,1009.71
2022-10-04T02:32:31.068Z,1009.70
2022-10-04T02:33:31.037Z,1009.68
2022-10-04T02:34:31.040Z,1009.69
2022-10-04T02:35:31.013Z,1009.70
2022-10-04T02:36:31.015Z,1009.71
2022-10-04T02:37:31.018Z,1009.71
2022-10-04T02:38:30.989Z,1009.73
2022-10-04T02:39:30.966Z,1009.76
2022-10-04T02:40:30.957Z,1009.76
2022-10-04T02:41:30.953Z,1009.77
2022-10-04T02:42:30.967Z,1009.76
2022-10-04T02:43:30.926Z,1009.75
2022-10-04T02:44:30.947Z,1009.75
2022-10-04T02:45:30.914Z,1009.76
2022-10-04T02:46:30.919Z,1009.76
2022-10-04T02:47:30.887Z,1009.77
2022-10-04T02:48:30.881Z,1009.78
2022-10-04T02:49:30.874Z,1009.78
2022-10-04T02:50:30.852Z,1009.79
2022-10-04T02:51:30.839Z,1009.79
2022-10-04T02:52:30.832Z,1009.78
2022-10-04T02:53:30.840Z,1009.77
2022-10-04T02:54:30.810Z,1009.77
2022-10-04T02:55:30.808Z,1009.77
2022-10-04T02:56:30.782Z,1009.75
2022-10-04T02:57:30.779Z,1009.73
2022-10-04T02:58:30.756Z,1009.70
2022-10-04T02:59:34.673Z,1009.67
2022-10-04T03:00:30.768Z,1009.67
2022-10-04T03:01:30.755Z,1009.67
2022-10-04T03:02:30.807Z,1009.66
2022-10-04T03:03:30.720Z,1009.65
2022-10-04T03:04:30.698Z,1009.62
2022-10-04T03:05:30.710Z,1009.61
2022-10-04T03:06:30.684Z,1009.59
2022-10-04T03:07:30.666Z,1009.56
2022-10-04T03:08:30.701Z,1009.53
2022-10-04T03:09:30.662Z,1009.50
2022-10-04T03:10:30.663Z,1009.47
2022-10-04T03:11:30.629Z,1009.45
2022-10-04T03:12:30.683Z,1009.43
2022-10-04T03:13:30.618Z,1009.43
2022-10-04T03:14:30.608Z,1009.42
2022-10-04T03:15:30.583Z,1009.41
2022-10-04T03:16:30.655Z,1009.39
2022-10-04T03:17:30.572Z,1009.38
2022-10-04T03:18:30.543Z,1009.38
2022-10-04T03:19:30.555Z,1009.39
2022-10-04T03:20:30.523Z,1009.42
2022-10-04T03:21:30.548Z,1009.44
2022-10-04T03:22:30.509Z,1009.44
2022-10-04T03:23:30.501Z,1009.43
2022-10-04T03:24:30.493Z,1009.42
2022-10-04T03:25:30.493Z,1009.42
2022-10-04T03:26:30.477Z,1009.43
2022-10-04T03:27:30.461Z,1009.45
2022-10-04T03:28:30.534Z,1009.46
2022-10-04T03:29:30.439Z,1009.46
2022-10-04T03:30:30.445Z,1009.45
2022-10-04T03:31:30.498Z,1009.43
2022-10-04T03:32:30.456Z,1009.42
2022-10-04T03:33:30.405Z,1009.41
2022-10-04T03:34:30.372Z,1009.42
2022-10-04T03:35:30.373Z,1009.43
2022-10-04T03:36:30.360Z,1009.42
2022-10-04T03:37:30.380Z,1009.42
2022-10-04T03:38:30.366Z,1009.40
2022-10-04T03:39:30.337Z,1009.39
2022-10-04T03:40:30.325Z,1009.39
2022-10-04T03:41:30.330Z,1009.38
2022-10-04T03:42:30.296Z,1009.36
2022-10-04T03:43:30.353Z,1009.34
2022-10-04T03:44:30.272Z,1009.30
2022-10-04T03:45:30.308Z,1009.27
2022-10-04T03:46:30.269Z,1009.24
2022-10-04T03:47:30.245Z,1009.22
2022-10-04T03:48:30.269Z,1009.21
2022-10-04T03:49:30.224Z,1009.20
2022-10-04T03:50:30.205Z,1009.19
2022-10-04T03:51:30.212Z,1009.20
2022-10-04T03:52:30.190Z,1009.19
2022-10-04T03:53:30.199Z,1009.18
2022-10-04T03:54:30.164Z,1009.16
2022-10-04T03:55:30.166Z,1009.13
2022-10-04T03:56:30.165Z,1009.12
2022-10-04T03:57:30.149Z,1009.11
2022-10-04T03:58:30.126Z,1009.09
2022-10-04T03:59:30.120Z,1009.07
2022-10-04T04:00:30.115Z,1009.06
2022-10-04T04:01:30.157Z,1009.06
2022-10-04T04:02:30.223Z,1009.07
2022-10-04T04:03:30.094Z,1009.08
2022-10-04T04:04:30.054Z,1009.09
2022-10-04T04:05:30.052Z,1009.09
2022-10-04T04:06:30.033Z,1009.09
2022-10-04T04:07:30.057Z,1009.08
2022-10-04T04:08:30.045Z,1009.06
2022-10-04T04:09:30.015Z,1009.05
2022-10-04T04:10:29.996Z,1009.02
2022-10-04T04:11:29.998Z,1009.01
2022-10-04T04:12:29.996Z,1008.99
2022-10-04T04:13:29.981Z,1008.97
2022-10-04T04:14:29.956Z,1008.96
2022-10-04T04:15:29.958Z,1008.95
2022-10-04T04:16:30.005Z,1008.93
2022-10-04T04:17:29.941Z,1008.93
2022-10-04T04:18:29.913Z,1008.92
2022-10-04T04:19:29.932Z,1008.93
2022-10-04T04:20:29.897Z,1008.94
2022-10-04T04:21:29.886Z,1008.94
2022-10-04T04:22:29.871Z,1008.94
2022-10-04T04:23:29.877Z,1008.95
2022-10-04T04:24:29.905Z,1008.95
2022-10-04T04:25:29.855Z,1008.95
2022-10-04T04:26:29.854Z,1008.92
2022-10-04T04:27:29.831Z,1008.89
2022-10-04T04:28:29.880Z,1008.87
2022-10-04T04:29:29.799Z,1008.85
2022-10-04T04:30:29.783Z,1008.86
2022-10-04T04:31:29.837Z,1008.88
2022-10-04T04:32:29.780Z,1008.89
2022-10-04T04:33:29.768Z,1008.88
2022-10-04T04:34:29.758Z,1008.87
2022-10-04T04:35:29.740Z,1008.85
2022-10-04T04:36:29.714Z,1008.84
2022-10-04T04:37:29.742Z,1008.83
2022-10-04T04:38:29.701Z,1008.83
2022-10-04T04:39:29.690Z,1008.84
2022-10-04T04:40:29.684Z,1008.86
2022-10-04T04:41:29.684Z,1008.88
2022-10-04T04:42:29.662Z,1008.91
2022-10-04T04:43:29.652Z,1008.92
2022-10-04T04:44:29.639Z,1008.94
2022-10-04T04:45:29.712Z,1008.94
2022-10-04T04:46:29.708Z,1008.94
2022-10-04T04:47:29.628Z,1008.95
2022-10-04T04:48:29.593Z,1008.95
2022-10-04T04:49:29.660Z,1008.93
2022-10-04T04:50:29.562Z,1008.91
2022-10-04T04:51:29.605Z,1008.88
2022-10-04T04:52:29.559Z,1008.86
2022-10-04T04:53:29.580Z,1008.84
2022-10-04T04:54:29.527Z,1008.85
2022-10-04T04:55:39.870Z,1008.85
2022-10-04T04:56:29.504Z,1008.84
2022-10-04T04:57:29.495Z,1008.83
2022-10-04T04:58:29.517Z,1008.82
2022-10-04T04:59:29.492Z,1008.80
2022-10-04T05:00:29.457Z,1008.79
2022-10-04T05:01:29.546Z,1008.79
2022-10-04T05:02:29.502Z,1008.80
2022-10-04T05:03:29.441Z,1008.80
2022-10-04T05:04:29.464Z,1008.80
2022-10-04T05:05:29.431Z,1008.80
2022-10-04T05:06:29.401Z,1008.79
2022-10-04T05:07:29.396Z,1008.79
2022-10-04T05:08:29.352Z,1008.77
2022-10-04T05:09:29.325Z,1008.75
2022-10-04T05:10:29.371Z,1008.73
2022-10-04T05:11:29.357Z,1008.70
2022-10-04T05:12:29.288Z,1008.68
2022-10-04T05:13:29.400Z,1008.68
2022-10-04T05:14:29.262Z,1008.68
2022-10-04T05:15:29.308Z,1008.71
2022-10-04T05:16:29.277Z,1008.74
2022-10-04T05:17:29.238Z,1008.77
2022-10-04T05:18:29.221Z,1008.79
2022-10-04T05:19:29.216Z,1008.81
2022-10-04T05:20:29.235Z,1008.83
2022-10-04T05:21:29.202Z,1008.85
2022-10-04T05:22:29.178Z,1008.86
2022-10-04T05:23:29.174Z,1008.87
2022-10-04T05:24:29.157Z,1008.86
2022-10-04T05:25:29.151Z,1008.85
2022-10-04T05:26:29.155Z,1008.83
2022-10-04T05:27:29.124Z,1008.81
2022-10-04T05:28:29.174Z,1008.80
2022-10-04T05:29:29.131Z,1008.79
2022-10-04T05:30:29.096Z,1008.80
2022-10-04T05:31:29.123Z,1008.80
2022-10-04T05:32:29.078Z,1008.81
2022-10-04T05:33:33.761Z,1008.82
2022-10-04T05:34:29.037Z,1008.83
2022-10-04T05:35:29.054Z,1008.82
2022-10-04T05:36:29.046Z,1008.82
2022-10-04T05:37:29.017Z,1008.82
2022-10-04T05:38:29.025Z,1008.82
2022-10-04T05:39:29.002Z,1008.82
2022-10-04T05:40:28.988Z,1008.82
2022-10-04T05:41:33.273Z,1008.81
2022-10-04T05:42:28.957Z,1008.80
2022-10-04T05:43:28.958Z,1008.78
2022-10-04T05:44:28.952Z,1008.75
2022-10-04T05:45:29.050Z,1008.73
2022-10-04T05:46:28.917Z,1008.72
2022-10-04T05:47:28.943Z,1008.71
2022-10-04T05:48:29.841Z,1008.70
2022-10-04T05:49:28.899Z,1008.70
2022-10-04T05:50:28.870Z,1008.71
2022-10-04T05:51:28.873Z,1008.74
2022-10-04T05:52:28.862Z,1008.78
2022-10-04T05:53:28.873Z,1008.81
2022-10-04T05:54:31.703Z,1008.85
2022-10-04T05:55:28.841Z,1008.89
2022-10-04T05:56:28.902Z,1008.92
2022-10-04T05:57:28.809Z,1008.93
2022-10-04T05:58:28.798Z,1008.93
2022-10-04T05:59:28.799Z,1008.92
2022-10-04T06:00:28.772Z,1008.91
2022-10-04T06:01:28.916Z,1008.90
2022-10-04T06:02:28.794Z,1008.90
2022-10-04T06:03:28.743Z,1008.88
2022-10-04T06:04:28.786Z,1008.88
2022-10-04T06:05:29.337Z,1008.86
2022-10-04T06:06:28.721Z,1008.85
2022-10-04T06:07:28.695Z,1008.86
2022-10-04T06:08:28.692Z,1008.88
2022-10-04T06:09:28.712Z,1008.89
2022-10-04T06:10:28.690Z,1008.88
2022-10-04T06:11:28.659Z,1008.86
2022-10-04T06:12:28.641Z,1008.85
2022-10-04T06:13:28.650Z,1008.85
2022-10-04T06:14:28.619Z,1008.85
2022-10-04T06:15:28.622Z,1008.86
2022-10-04T06:16:28.657Z,1008.87
2022-10-04T06:17:28.612Z,1008.88
2022-10-04T06:18:28.587Z,1008.87
2022-10-04T06:19:28.584Z,1008.84
2022-10-04T06:20:28.592Z,1008.82
2022-10-04T06:21:28.566Z,1008.81
2022-10-04T06:22:28.548Z,1008.82
2022-10-04T06:23:28.766Z,1008.84
2022-10-04T06:24:28.548Z,1008.85
2022-10-04T06:25:28.575Z,1008.85
2022-10-04T06:26:28.485Z,1008.84
2022-10-04T06:27:28.529Z,1008.82
2022-10-04T06:28:28.535Z,1008.80
2022-10-04T06:29:28.484Z,1008.78
2022-10-04T06:30:28.491Z,1008.76
2022-10-04T06:31:28.476Z,1008.74
2022-10-04T06:32:28.448Z,1008.74
2022-10-04T06:33:28.436Z,1008.73
2022-10-04T06:34:28.400Z,1008.74
2022-10-04T06:35:28.408Z,1008.74
2022-10-04T06:36:28.384Z,1008.75
2022-10-04T06:37:28.395Z,1008.77
2022-10-04T06:38:28.369Z,1008.78
2022-10-04T06:39:28.361Z,1008.80
2022-10-04T06:40:28.348Z,1008.81
2022-10-04T06:41:28.360Z,1008.81
2022-10-04T06:42:28.329Z,1008.80
2022-10-04T06:43:28.325Z,1008.79
2022-10-04T06:44:28.302Z,1008.80
2022-10-04T06:45:28.301Z,1008.81
2022-10-04T06:46:28.371Z,1008.82
2022-10-04T06:47:28.273Z,1008.83
2022-10-04T06:48:28.274Z,1008.84
2022-10-04T06:49:28.259Z,1008.85
2022-10-04T06:50:28.287Z,1008.84
2022-10-04T06:51:28.316Z,1008.83
2022-10-04T06:52:28.231Z,1008.81
2022-10-04T06:53:30.862Z,1008.81
2022-10-04T06:54:28.200Z,1008.81
2022-10-04T06:55:28.211Z,1008.81
2022-10-04T06:56:28.198Z,1008.80
2022-10-04T06:57:28.170Z,1008.80
2022-10-04T06:58:28.135Z,1008.81
2022-10-04T06:59:28.144Z,1008.82
2022-10-04T07:00:28.131Z,1008.83
2022-10-04T07:01:28.192Z,1008.82
2022-10-04T07:02:28.162Z,1008.83
2022-10-04T07:03:28.096Z,1008.83
2022-10-04T07:04:28.101Z,1008.85
2022-10-04T07:05:28.079Z,1008.87
2022-10-04T07:06:28.088Z,1008.90
2022-10-04T07:07:28.082Z,1008.91
2022-10-04T07:08:28.048Z,1008.93
2022-10-04T07:09:28.041Z,1008.94
2022-10-04T07:10:28.031Z,1008.96
2022-10-04T07:11:28.028Z,1008.98
2022-10-04T07:12:28.001Z,1008.98
2022-10-04T07:13:28.032Z,1008.99
2022-10-04T07:14:27.996Z,1008.99
2022-10-04T07:15:27.989Z,1008.99
2022-10-04T07:16:27.967Z,1008.98
2022-10-04T07:17:27.975Z,1008.97
2022-10-04T07:18:28.018Z,1008.97
2022-10-04T07:19:27.958Z,1008.97
2022-10-04T07:20:27.917Z,1008.97
2022-10-04T07:21:27.935Z,1008.98
2022-10-04T07:22:27.909Z,1008.99
2022-10-04T07:23:28.746Z,1009.00
2022-10-04T07:24:27.924Z,1009.01
2022-10-04T07:25:27.872Z,1009.01
2022-10-04T07:26:27.865Z,1009.02
2022-10-04T07:27:27.847Z,1009.02
2022-10-04T07:28:28.004Z,1009.02
2022-10-04T07:29:27.824Z,1009.02
2022-10-04T07:30:27.820Z,1009.02
2022-10-04T07:31:27.831Z,1009.03
2022-10-04T07:32:27.785Z,1009.03
2022-10-04T07:33:27.783Z,1009.05
2022-10-04T07:34:27.793Z,1009.05
2022-10-04T07:35:27.786Z,1009.06
2022-10-04T07:36:27.749Z,1009.06
2022-10-04T07:37:27.737Z,1009.07
2022-10-04T07:38:27.744Z,1009.07
2022-10-04T07:39:27.714Z,1009.09
2022-10-04T07:40:27.734Z,1009.11
2022-10-04T07:41:27.699Z,1009.13
2022-10-04T07:42:27.696Z,1009.15
2022-10-04T07:43:27.692Z,1009.17
2022-10-04T07:44:27.687Z,1009.17
2022-10-04T07:45:30.040Z,1009.17
2022-10-04T07:46:27.744Z,1009.17
2022-10-04T07:47:27.633Z,1009.20
2022-10-04T07:48:27.633Z,1009.23
2022-10-04T07:49:27.610Z,1009.25
2022-10-04T07:50:27.597Z,1009.26
2022-10-04T07:51:27.611Z,1009.27
2022-10-04T07:52:27.582Z,1009.26
2022-10-04T07:53:27.585Z,1009.25
2022-10-04T07:54:27.655Z,1009.24
2022-10-04T07:55:27.549Z,1009.23
2022-10-04T07:56:27.570Z,1009.22
2022-10-04T07:57:27.533Z,1009.22
2022-10-04T07:58:27.526Z,1009.20
2022-10-04T07:59:27.513Z,1009.19
2022-10-04T08:00:27.569Z,1009.18
2022-10-04T08:01:27.509Z,1009.18
2022-10-04T08:02:30.956Z,1009.20
2022-10-04T08:03:27.522Z,1009.20
2022-10-04T08:04:27.453Z,1009.22
2022-10-04T08:05:27.433Z,1009.23
2022-10-04T08:06:27.445Z,1009.23
2022-10-04T08:07:27.423Z,1009.21
2022-10-04T08:08:27.422Z,1009.19
2022-10-04T08:09:27.398Z,1009.16
2022-10-04T08:10:27.395Z,1009.14
2022-10-04T08:11:27.395Z,1009.13
2022-10-04T08:12:27.389Z,1009.13
2022-10-04T08:13:27.346Z,1009.11
2022-10-04T08:14:27.370Z,1009.10
2022-10-04T08:15:27.336Z,1009.10
2022-10-04T08:16:27.331Z,1009.10
2022-10-04T08:17:27.367Z,1009.09
2022-10-04T08:18:27.366Z,1009.08
2022-10-04T08:19:27.297Z,1009.08
2022-10-04T08:20:27.290Z,1009.07
2022-10-04T08:21:27.274Z,1009.06
2022-10-04T08:22:27.291Z,1009.05
2022-10-04T08:23:27.285Z,1009.03
2022-10-04T08:24:27.246Z,1009.01
2022-10-04T08:25:27.240Z,1009.00
2022-10-04T08:26:27.228Z,1009.00
2022-10-04T08:27:27.207Z,1009.00
2022-10-04T08:28:27.268Z,1009.00
2022-10-04T08:29:27.193Z,1009.01
2022-10-04T08:30:27.186Z,1009.03
2022-10-04T08:31:27.252Z,1009.04
2022-10-04T08:32:27.157Z,1009.04
2022-10-04T08:33:27.143Z,1009.02
2022-10-04T08:34:27.158Z,1008.99
2022-10-04T08:35:27.121Z,1008.98
2022-10-04T08:36:27.098Z,1008.96
2022-10-04T08:37:27.097Z,1008.93
2022-10-04T08:38:27.104Z,1008.91
2022-10-04T08:39:27.077Z,1008.89
2022-10-04T08:40:27.173Z,1008.87
2022-10-04T08:41:27.049Z,1008.84
2022-10-04T08:42:27.056Z,1008.83
2022-10-04T08:43:27.037Z,1008.83
2022-10-04T08:44:27.023Z,1008.83
2022-10-04T08:45:27.019Z,1008.81
2022-10-04T08:46:27.042Z,1008.85
2022-10-04T08:47:26.986Z,1008.82
2022-10-04T08:48:27.008Z,1008.84
2022-10-04T08:49:27.019Z,1008.84
2022-10-04T08:50:26.962Z,1008.82
2022-10-04T08:51:26.955Z,1008.81
2022-10-04T08:52:27.164Z,1008.81
2022-10-04T08:53:26.948Z,1008.78
2022-10-04T08:54:26.931Z,1008.80
2022-10-04T08:55:26.908Z,1008.79
2022-10-04T08:56:26.921Z,1008.79
2022-10-04T08:57:26.878Z,1008.78
2022-10-04T08:58:26.871Z,1008.79
2022-10-04T08:59:26.868Z,1008.77
2022-10-04T09:00:26.857Z,1008.81
2022-10-04T09:01:26.863Z,1008.79
2022-10-04T09:02:26.923Z,1008.80
2022-10-04T09:03:26.834Z,1008.79
2022-10-04T09:04:26.819Z,1008.77
2022-10-04T09:05:26.798Z,1008.77
2022-10-04T09:06:26.798Z,1008.75
2022-10-04T09:07:26.787Z,1008.77
2022-10-04T09:08:26.801Z,1008.79
2022-10-04T09:09:26.762Z,1008.78
2022-10-04T09:10:26.788Z,1008.76
2022-10-04T09:11:26.771Z,1008.73
2022-10-04T09:12:26.722Z,1008.73
2022-10-04T09:13:26.705Z,1008.72
2022-10-04T09:14:26.737Z,1008.73
2022-10-04T09:15:26.695Z,1008.71
2022-10-04T09:16:26.773Z,1008.69
2022-10-04T09:17:26.676Z,1008.67
2022-10-04T09:18:26.687Z,1008.67
2022-10-04T09:19:26.741Z,1008.67
2022-10-04T09:20:38.328Z,1008.68
2022-10-04T09:21:26.622Z,1008.68
2022-10-04T09:22:26.634Z,1008.69
2022-10-04T09:23:26.609Z,1008.66
2022-10-04T09:24:26.633Z,1008.67
2022-10-04T09:25:26.592Z,1008.72
2022-10-04T09:26:26.579Z,1008.68
2022-10-04T09:27:53.268Z,1008.64
2022-10-04T09:28:26.606Z,1008.61
2022-10-04T09:29:26.548Z,1008.58
2022-10-04T09:30:26.567Z,1008.58
2022-10-04T09:31:26.565Z,1008.54
2022-10-04T09:32:26.523Z,1008.55
2022-10-04T09:33:26.491Z,1008.54
2022-10-04T09:34:26.488Z,1008.56
2022-10-04T09:35:26.479Z,1008.57
2022-10-04T09:36:26.500Z,1008.58
2022-10-04T09:37:26.456Z,1008.58
2022-10-04T09:38:26.485Z,1008.60
2022-10-04T09:39:30.402Z,1008.60
2022-10-04T09:40:26.427Z,1008.61
2022-10-04T09:41:26.427Z,1008.60
2022-10-04T09:42:26.404Z,1008.59
2022-10-04T09:43:26.398Z,1008.64
2022-10-04T09:44:26.391Z,1008.59
2022-10-04T09:45:26.360Z,1008.59
2022-10-04T09:46:26.400Z,1008.57
2022-10-04T09:47:26.373Z,1008.58
2022-10-04T09:48:26.352Z,1008.56
2022-10-04T09:49:26.316Z,1008.60
2022-10-04T09:50:26.340Z,1008.57
2022-10-04T09:51:26.316Z,1008.55
2022-10-04T09:52:26.290Z,1008.53
2022-10-04T09:53:26.306Z,1008.54
2022-10-04T09:54:26.287Z,1008.53
2022-10-04T09:55:26.274Z,1008.54
2022-10-04T09:56:26.257Z,1008.57
2022-10-04T09:57:26.236Z,1008.51
2022-10-04T09:58:26.261Z,1008.47
2022-10-04T09:59:26.246Z,1008.48
2022-10-04T10:00:26.237Z,1008.49
2022-10-04T10:01:26.207Z,1008.48
2022-10-04T10:02:26.250Z,1008.50
2022-10-04T10:03:26.217Z,1008.47
2022-10-04T10:04:26.175Z,1008.48
2022-10-04T10:05:26.175Z,1008.51
2022-10-04T10:06:26.143Z,1008.45
2022-10-04T10:07:26.140Z,1008.45
2022-10-04T10:08:28.295Z,1008.45
2022-10-04T10:09:26.123Z,1008.46
2022-10-04T10:10:26.134Z,1008.44
2022-10-04T10:11:26.088Z,1008.40
2022-10-04T10:12:26.085Z,1008.37
2022-10-04T10:13:30.045Z,1008.33
2022-10-04T10:14:26.088Z,1008.34
2022-10-04T10:15:26.050Z,1008.34
2022-10-04T10:16:26.087Z,1008.35
2022-10-04T10:17:26.039Z,1008.37
2022-10-04T10:18:26.023Z,1008.40
2022-10-04T10:19:28.314Z,1008.44
2022-10-04T10:20:26.006Z,1008.45
2022-10-04T10:21:25.982Z,1008.46
2022-10-04T10:22:26.012Z,1008.48
2022-10-04T10:23:25.965Z,1008.51
2022-10-04T10:24:25.967Z,1008.49
2022-10-04T10:25:25.942Z,1008.52
2022-10-04T10:26:25.937Z,1008.51
2022-10-04T10:27:25.949Z,1008.51
2022-10-04T10:28:25.958Z,1008.50
2022-10-04T10:29:25.897Z,1008.52
2022-10-04T10:30:25.904Z,1008.54
2022-10-04T10:31:25.926Z,1008.50
2022-10-04T10:32:25.869Z,1008.55
2022-10-04T10:33:25.873Z,1008.51
2022-10-04T10:34:25.857Z,1008.49
2022-10-04T10:35:25.859Z,1008.54
2022-10-04T10:36:25.829Z,1008.48
2022-10-04T10:37:25.816Z,1008.49
2022-10-04T10:38:25.841Z,1008.47
2022-10-04T10:39:25.796Z,1008.47
2022-10-04T10:40:25.808Z,1008.50
2022-10-04T10:41:25.797Z,1008.49
2022-10-04T10:42:25.765Z,1008.49
2022-10-04T10:43:25.752Z,1008.50
2022-10-04T10:44:25.757Z,1008.49
2022-10-04T10:45:25.749Z,1008.51
2022-10-04T10:46:25.784Z,1008.50
2022-10-04T10:47:25.737Z,1008.51
2022-10-04T10:48:25.782Z,1008.46
2022-10-04T10:49:25.682Z,1008.43
2022-10-04T10:50:25.692Z,1008.44
2022-10-04T10:51:25.686Z,1008.42
2022-10-04T10:52:25.688Z,1008.41
2022-10-04T10:53:25.641Z,1008.45
2022-10-04T10:54:25.652Z,1008.43
2022-10-04T10:55:25.631Z,1008.42
2022-10-04T10:56:29.387Z,1008.44
2022-10-04T10:57:25.614Z,1008.43
2022-10-04T10:58:25.608Z,1008.40
2022-10-04T10:59:25.601Z,1008.39
2022-10-04T11:00:25.587Z,1008.38
2022-10-04T11:01:25.697Z,1008.35
2022-10-04T11:02:42.234Z,1008.36
2022-10-04T11:03:29.790Z,1008.35
2022-10-04T11:04:25.554Z,1008.32
2022-10-04T11:05:25.550Z,1008.33
2022-10-04T11:06:25.533Z,1008.32
2022-10-04T11:07:25.508Z,1008.32
2022-10-04T11:08:25.497Z,1008.33
2022-10-04T11:09:25.497Z,1008.32
2022-10-04T11:10:25.538Z,1008.30
2022-10-04T11:11:25.472Z,1008.29
2022-10-04T11:12:25.475Z,1008.25
2022-10-04T11:13:25.452Z,1008.24
2022-10-04T11:14:25.447Z,1008.25
2022-10-04T11:15:25.435Z,1008.25
2022-10-04T11:16:25.514Z,1008.23
2022-10-04T11:17:25.425Z,1008.25
2022-10-04T11:18:25.404Z,1008.18
2022-10-04T11:19:25.395Z,1008.21
2022-10-04T11:20:25.396Z,1008.23
2022-10-04T11:21:25.403Z,1008.18
2022-10-04T11:22:25.360Z,1008.15
2022-10-04T11:23:25.365Z,1008.15
2022-10-04T11:24:25.345Z,1008.13
2022-10-04T11:25:25.368Z,1008.14
2022-10-04T11:26:25.334Z,1008.17
2022-10-04T11:27:25.320Z,1008.15
2022-10-04T11:28:25.375Z,1008.13
2022-10-04T11:29:25.309Z,1008.17
2022-10-04T11:30:25.313Z,1008.15
2022-10-04T11:31:25.333Z,1008.13
2022-10-04T11:32:25.262Z,1008.11
2022-10-04T11:33:25.273Z,1008.08
2022-10-04T11:34:25.242Z,1008.04
2022-10-04T11:35:25.230Z,1008.09
2022-10-04T11:36:25.291Z,1008.06
2022-10-04T11:37:25.224Z,1008.05
2022-10-04T11:38:25.205Z,1008.02
2022-10-04T11:39:25.202Z,1007.99
2022-10-04T11:40:25.179Z,1007.99
2022-10-04T11:41:25.197Z,1008.02
2022-10-04T11:42:25.202Z,1008.02
2022-10-04T11:43:25.152Z,1008.03
2022-10-04T11:44:25.136Z,1008.03
2022-10-04T11:45:25.171Z,1008.02
2022-10-04T11:46:25.204Z,1008.00
2022-10-04T11:47:25.138Z,1007.99
2022-10-04T11:48:25.152Z,1007.96
2022-10-04T11:49:25.101Z,1007.95
2022-10-04T11:50:25.074Z,1007.97
2022-10-04T11:51:25.074Z,1007.96
2022-10-04T11:52:25.094Z,1007.95
2022-10-04T11:53:25.149Z,1007.99
2022-10-04T11:54:25.067Z,1007.96
2022-10-04T11:55:25.040Z,1007.95
2022-10-04T11:56:25.014Z,1007.89
2022-10-04T11:57:25.026Z,1007.88
2022-10-04T11:58:25.049Z,1007.86
2022-10-04T11:59:24.983Z,1007.89
2022-10-04T12:00:25.002Z,1007.94
2022-10-04T12:01:24.978Z,1007.89
2022-10-04T12:02:24.936Z,1007.89
2022-10-04T12:03:25.029Z,1007.87
2022-10-04T12:04:24.991Z,1007.89
2022-10-04T12:05:24.918Z,1007.83